Terminal Aerodrome Forecast
Issued by NWS

Home | Current Version | Previous Version | Text Only | Print | Product List | Glossary Off
Versions: 1 2 3 4 5 6 7 8 9 10 11 12 13 14 15 16 17 18 19 20

000
FTUS43 KICT 010300 AAC
TAFRSL
TAF AMD
KRSL 010315Z 0103/0124 02012KT P6SM VCTS SCT030CB BKN060
      TEMPO 0103/0107 2SM +TSRA OVC030CB
     FM010800 05009KT P6SM SCT040 BKN080
     FM011200 36012KT P6SM BKN120=

USA.gov is the U.S. government's official web portal to all federal, state and local government web resources and services.